Time;durP1;ratioP1;P1;durP2;ratioP2;P2;SDS_P1;SDS_P2;PMS_P1;PMS_P2;Temp;Humidity;BMP_temperature;BMP_pressure;BME280_temperature;BME280_humidity;BME280_pressure;Samples;Min_cycle;Max_cycle;Signal;HPM_P1;HPM_P2
2023/04/13 00:01:12;;;;;;;1.80;0.98;;;7.80;99.90;;;;;;4992984;28;20278;-41
2023/04/13 00:03:38;;;;;;;4.05;1.92;;;7.90;99.90;;;;;;4992799;28;20637;-43
2023/04/13 00:06:03;;;;;;;3.70;1.40;;;7.90;99.90;;;;;;4992113;28;20169;-42
2023/04/13 00:08:29;;;;;;;0.80;0.80;;;8.00;99.90;;;;;;4980173;28;20311;-42
2023/04/13 00:10:56;;;;;;;5.20;1.25;;;;;;;;;;4987951;28;20181;-42
2023/04/13 00:13:23;;;;;;;3.05;1.20;;;8.10;99.90;;;;;;4992935;28;20211;-43
2023/04/13 00:15:49;;;;;;;2.65;1.00;;;8.10;99.90;;;;;;4992889;28;20218;-43
2023/04/13 00:18:14;;;;;;;5.80;1.10;;;8.20;99.90;;;;;;4992427;28;20176;-43
2023/04/13 00:20:42;;;;;;;1.63;1.17;;;8.30;99.90;;;;;;4992725;28;20177;-43
2023/04/13 00:23:07;;;;;;;4.70;1.38;;;8.30;99.90;;;;;;4992528;28;20261;-42
2023/04/13 00:25:33;;;;;;;1.90;0.82;;;8.30;99.90;;;;;;4992447;28;20169;-43
2023/04/13 00:28:02;;;;;;;1.17;0.77;;;8.20;99.90;;;;;;4992294;28;20238;-42
2023/04/13 00:30:27;;;;;;;2.20;1.20;;;8.30;99.90;;;;;;4992265;28;20652;-42
2023/04/13 00:32:53;;;;;;;1.13;0.80;;;8.40;99.90;;;;;;4992553;28;20215;-43
2023/04/13 00:35:23;;;;;;;3.55;1.00;;;8.40;99.90;;;;;;4992616;28;20181;-43
2023/04/13 00:37:50;;;;;;;2.15;1.08;;;8.30;99.90;;;;;;4985354;28;20178;-43
2023/04/13 00:40:17;;;;;;;1.35;1.10;;;8.40;99.90;;;;;;4972983;28;20184;-43
2023/04/13 00:42:47;;;;;;;1.58;0.77;;;8.40;99.90;;;;;;4972640;28;20218;-43
2023/04/13 00:45:13;;;;;;;3.75;1.35;;;8.30;99.90;;;;;;4972877;28;20185;-43
2023/04/13 00:47:40;;;;;;;6.93;1.55;;;8.30;99.90;;;;;;4972933;28;20178;-42
2023/04/13 00:50:07;;;;;;;1.95;1.10;;;8.30;99.90;;;;;;4972768;28;20177;-43
2023/04/13 00:52:33;;;;;;;4.10;1.40;;;8.30;99.90;;;;;;4972517;28;20570;-43
2023/04/13 00:55:01;;;;;;;2.17;0.47;;;8.30;99.90;;;;;;4972591;28;20633;-43
2023/04/13 00:57:27;;;;;;;5.18;1.42;;;8.30;99.90;;;;;;4972824;28;20177;-42
2023/04/13 00:59:53;;;;;;;5.15;1.65;;;8.30;99.90;;;;;;4972794;28;20176;-42
2023/04/13 01:02:25;;;;;;;2.35;1.10;;;8.20;99.90;;;;;;4972710;28;20291;-42
2023/04/13 01:04:54;;;;;;;2.30;1.23;;;8.10;99.90;;;;;;4972783;28;20167;-42
2023/04/13 01:07:46;;;;;;;3.10;1.20;;;8.30;99.90;;;;;;4976839;28;20506;-42
2023/04/13 01:10:19;;;;;;;2.17;0.85;;;8.30;99.90;;;;;;4989127;28;20819;-42
2023/04/13 01:12:55;;;;;;;0.77;0.68;;;8.30;99.90;;;;;;4991290;28;20264;-42
2023/04/13 01:15:22;;;;;;;2.45;0.75;;;8.30;99.90;;;;;;4990491;28;20294;-42
2023/04/13 01:17:55;;;;;;;1.58;1.15;;;8.30;99.90;;;;;;4991647;28;20177;-42
2023/04/13 01:20:22;;;;;;;2.00;1.30;;;;;;;;;;4991441;28;20712;-41
2023/04/13 01:22:57;;;;;;;5.15;1.17;;;8.10;99.90;;;;;;4991376;28;20209;-42
2023/04/13 01:25:58;;;;;;;5.03;1.25;;;8.20;99.90;;;;;;4972488;28;20172;-42
2023/04/13 01:28:24;;;;;;;1.15;0.73;;;8.20;99.90;;;;;;4971772;28;20184;-42
2023/04/13 01:30:52;;;;;;;1.15;0.90;;;8.20;99.90;;;;;;4971897;28;20165;-42
2023/04/13 01:33:19;;;;;;;3.85;0.80;;;8.20;99.90;;;;;;4971710;28;20641;-42
2023/04/13 01:35:46;;;;;;;4.30;1.17;;;;;;;;;;4971669;28;20264;-41
2023/04/13 01:38:13;;;;;;;1.63;1.25;;;8.20;99.90;;;;;;4982169;28;20188;-42
2023/04/13 01:40:43;;;;;;;4.05;1.55;;;8.30;99.90;;;;;;4989645;28;20268;-42
2023/04/13 01:43:08;;;;;;;6.97;1.48;;;8.30;99.90;;;;;;4990578;28;20200;-41
2023/04/13 01:45:52;;;;;;;1.52;0.90;;;8.10;99.90;;;;;;4990562;28;20621;-42
2023/04/13 01:48:40;;;;;;;2.85;1.23;;;8.30;99.90;;;;;;4991010;28;20671;-42
2023/04/13 01:51:23;;;;;;;1.08;0.77;;;8.20;99.90;;;;;;4988778;28;20180;-42
2023/04/13 01:53:49;;;;;;;3.22;1.08;;;;;;;;;;4990867;28;20242;-42
2023/04/13 01:56:18;;;;;;;3.15;1.23;;;8.30;99.90;;;;;;4990517;28;20173;-42
2023/04/13 01:58:48;;;;;;;4.28;1.23;;;8.20;99.90;;;;;;4987307;28;20184;-42
2023/04/13 02:01:14;;;;;;;2.17;0.90;;;8.20;99.90;;;;;;4971390;28;20166;-42
2023/04/13 02:03:42;;;;;;;5.32;1.85;;;8.30;99.90;;;;;;4971046;28;20173;-42
2023/04/13 02:06:08;;;;;;;4.90;1.42;;;8.30;99.90;;;;;;4970962;28;20168;-42
2023/04/13 02:08:35;;;;;;;5.18;2.50;;;;;;;;;;4970892;28;20221;-42
2023/04/13 02:11:02;;;;;;;3.33;1.50;;;8.40;99.90;;;;;;4971097;28;20165;-42
2023/04/13 02:13:29;;;;;;;1.38;0.52;;;8.30;99.90;;;;;;4970883;28;20251;-42
2023/04/13 02:15:55;;;;;;;1.67;0.55;;;8.40;99.90;;;;;;4970427;28;20633;-42
2023/04/13 02:18:22;;;;;;;1.50;0.80;;;;;;;;;;4971078;28;20169;-42
2023/04/13 02:20:59;;;;;;;4.38;1.00;;;8.30;99.90;;;;;;4971393;28;20182;-43
2023/04/13 02:23:25;;;;;;;4.55;1.50;;;8.40;99.90;;;;;;4970555;28;20747;-42
2023/04/13 02:25:50;;;;;;;3.53;1.45;;;8.40;99.90;;;;;;4971045;28;20531;-42
2023/04/13 02:28:16;;;;;;;5.45;1.40;;;8.30;99.90;;;;;;4970498;28;20169;-42
2023/04/13 02:30:43;;;;;;;1.83;1.00;;;;;;;;;;4988867;28;20184;-42
2023/04/13 02:33:09;;;;;;;4.13;1.30;;;8.30;99.90;;;;;;4990136;28;20184;-42
2023/04/13 02:35:37;;;;;;;2.33;1.23;;;;;;;;;;4990039;28;20160;-42
2023/04/13 02:38:03;;;;;;;5.75;2.08;;;;;;;;;;4989946;28;20180;-42
2023/04/13 02:40:29;;;;;;;4.93;1.58;;;8.40;99.90;;;;;;4989766;28;20254;-42
2023/04/13 02:42:56;;;;;;;1.98;1.13;;;;;;;;;;4989993;28;20251;-42
2023/04/13 02:45:22;;;;;;;3.70;1.48;;;8.40;99.90;;;;;;4990044;28;20165;-42
2023/04/13 02:47:48;;;;;;;4.75;1.52;;;;;;;;;;4990249;28;20176;-42
2023/04/13 02:50:13;;;;;;;3.75;1.48;;;8.40;99.90;;;;;;4989878;28;20525;-42
2023/04/13 02:52:39;;;;;;;4.45;1.40;;;8.40;99.90;;;;;;4988659;28;20526;-43
2023/04/13 02:55:05;;;;;;;3.72;0.90;;;8.40;99.90;;;;;;4989616;28;20192;-42
2023/04/13 02:57:31;;;;;;;3.45;0.90;;;8.30;99.90;;;;;;4989609;28;20173;-42
2023/04/13 02:59:56;;;;;;;1.45;0.70;;;8.40;99.90;;;;;;4976915;28;20256;-42
2023/04/13 03:02:25;;;;;;;0.68;0.68;;;8.40;99.90;;;;;;4969955;28;20300;-42
2023/04/13 03:04:50;;;;;;;1.23;0.80;;;8.40;99.90;;;;;;4970766;28;20184;-42
2023/04/13 03:07:16;;;;;;;1.15;1.10;;;8.40;99.90;;;;;;4970479;28;20173;-42
2023/04/13 03:09:43;;;;;;;0.55;0.52;;;8.30;99.90;;;;;;4969920;28;20221;-42
2023/04/13 03:12:09;;;;;;;1.92;1.00;;;8.40;99.90;;;;;;4970242;28;20263;-42
2023/04/13 03:14:36;;;;;;;1.77;0.60;;;;;;;;;;4970375;28;20174;-43
2023/04/13 03:17:06;;;;;;;2.45;0.90;;;8.40;99.90;;;;;;4969905;28;20174;-44
2023/04/13 03:19:32;;;;;;;0.95;0.50;;;8.40;99.90;;;;;;4969683;28;20532;-44
2023/04/13 03:21:57;;;;;;;1.02;0.60;;;8.40;99.90;;;;;;4969865;28;20208;-44
2023/04/13 03:24:26;;;;;;;2.08;0.85;;;8.30;99.90;;;;;;4970030;28;20177;-44
2023/04/13 03:26:56;;;;;;;0.98;0.88;;;8.30;99.90;;;;;;4969924;28;20256;-44
2023/04/13 03:29:23;;;;;;;3.33;0.75;;;8.30;99.90;;;;;;4976046;28;20180;-44
2023/04/13 03:31:50;;;;;;;0.60;0.45;;;8.20;99.90;;;;;;4989102;28;20724;-42
2023/04/13 03:34:16;;;;;;;2.15;0.82;;;8.20;99.90;;;;;;4988829;28;20629;-44
2023/04/13 03:36:41;;;;;;;1.52;0.60;;;;;;;;;;4989164;28;20169;-43
2023/04/13 03:39:07;;;;;;;0.90;0.50;;;8.10;99.90;;;;;;4989090;28;20176;-44
2023/04/13 03:41:32;;;;;;;1.08;0.45;;;8.20;99.90;;;;;;4988957;28;20169;-44
2023/04/13 03:43:58;;;;;;;3.50;0.75;;;8.20;99.90;;;;;;4989352;28;20204;-44
2023/04/13 03:46:24;;;;;;;1.40;0.60;;;8.30;99.90;;;;;;4989341;28;20665;-44
2023/04/13 03:48:50;;;;;;;2.42;0.68;;;8.30;99.90;;;;;;4989592;28;20176;-44
2023/04/13 03:51:16;;;;;;;2.90;0.80;;;;;;;;;;4989204;28;20222;-44
2023/04/13 03:53:41;;;;;;;3.30;0.93;;;8.20;99.90;;;;;;4989037;28;20169;-43
2023/04/13 03:56:07;;;;;;;3.40;0.30;;;8.10;99.90;;;;;;4988379;28;20183;-44
2023/04/13 03:58:33;;;;;;;0.80;0.40;;;8.20;99.90;;;;;;4984348;28;20174;-44
2023/04/13 04:00:59;;;;;;;1.65;0.70;;;8.20;99.90;;;;;;4968977;28;20195;-44
2023/04/13 04:03:25;;;;;;;0.93;0.70;;;8.20;99.90;;;;;;4969608;28;20751;-44
2023/04/13 04:05:51;;;;;;;0.30;0.30;;;;;;;;;;4968870;28;20180;-43
2023/04/13 04:08:17;;;;;;;2.63;0.73;;;8.20;99.90;;;;;;4969222;28;20221;-42
2023/04/13 04:10:43;;;;;;;0.95;0.52;;;;;;;;;;4969479;28;20184;-42
2023/04/13 04:13:08;;;;;;;1.80;1.02;;;8.10;99.90;;;;;;4969315;28;20592;-42
2023/04/13 04:15:34;;;;;;;3.20;0.88;;;8.10;99.90;;;;;;4969167;28;20236;-42
2023/04/13 04:18:00;;;;;;;0.63;0.10;;;8.10;99.90;;;;;;4969530;28;20253;-43
2023/04/13 04:20:25;;;;;;;0.40;0.40;;;8.00;99.90;;;;;;4969430;28;20170;-42
2023/04/13 04:22:52;;;;;;;0.80;0.47;;;7.70;99.90;;;;;;4968981;28;20209;-42
2023/04/13 04:25:21;;;;;;;0.20;0.20;;;8.00;99.90;;;;;;4969766;28;20208;-42
2023/04/13 04:27:51;;;;;;;1.55;0.65;;;8.00;99.90;;;;;;4969451;28;20253;-43
2023/04/13 04:30:20;;;;;;;0.75;0.30;;;8.00;99.90;;;;;;4985627;28;20169;-42
2023/04/13 04:32:46;;;;;;;0.32;0.30;;;8.00;99.90;;;;;;4988974;28;20172;-42
2023/04/13 04:35:13;;;;;;;1.88;1.02;;;8.00;99.90;;;;;;4985265;28;20170;-43
2023/04/13 04:37:39;;;;;;;0.85;0.28;;;8.00;99.90;;;;;;4967790;28;20255;-41
2023/04/13 04:40:08;;;;;;;1.00;0.43;;;7.90;99.90;;;;;;4989759;28;20169;-42
2023/04/13 04:42:36;;;;;;;1.50;0.40;;;7.90;99.90;;;;;;4974620;28;20279;-42
2023/04/13 04:45:05;;;;;;;3.53;0.80;;;7.90;99.90;;;;;;4972488;28;20173;-42
2023/04/13 04:47:31;;;;;;;1.52;0.60;;;7.90;99.90;;;;;;4971998;28;20176;-41
2023/04/13 04:49:57;;;;;;;5.03;0.88;;;7.80;99.90;;;;;;4989238;28;20181;-42
2023/04/13 04:52:24;;;;;;;2.17;0.70;;;7.70;99.90;;;;;;4988571;28;20177;-42
2023/04/13 04:54:50;;;;;;;3.72;0.68;;;7.80;99.90;;;;;;4991035;28;20524;-42
2023/04/13 04:57:17;;;;;;;0.82;0.50;;;7.70;99.90;;;;;;4991413;28;20593;-42
2023/04/13 04:59:43;;;;;;;1.67;0.68;;;7.70;99.90;;;;;;4991321;28;20184;-43
2023/04/13 05:02:09;;;;;;;1.50;0.82;;;;;;;;;;4990953;28;20201;-43
2023/04/13 05:04:35;;;;;;;2.88;0.90;;;7.70;99.90;;;;;;4991224;28;20476;-43
2023/04/13 05:07:01;;;;;;;4.93;0.70;;;;;;;;;;4991192;28;20169;-42
2023/04/13 05:09:27;;;;;;;2.10;0.82;;;7.80;99.90;;;;;;4973336;28;20699;-42
2023/04/13 05:11:53;;;;;;;0.73;0.73;;;;;;;;;;4971867;28;20229;-42
2023/04/13 05:14:19;;;;;;;1.65;0.60;;;7.80;99.90;;;;;;4972159;28;20244;-42
2023/04/13 05:16:45;;;;;;;1.55;0.85;;;7.70;99.90;;;;;;4971909;28;20173;-43
2023/04/13 05:19:11;;;;;;;7.15;0.88;;;7.70;99.90;;;;;;4971621;28;20180;-42
2023/04/13 05:21:37;;;;;;;3.13;0.90;;;7.80;99.90;;;;;;4971677;28;20181;-42
2023/04/13 05:24:03;;;;;;;4.63;0.88;;;;;;;;;;4975393;28;20181;-42
2023/04/13 05:26:29;;;;;;;8.02;1.00;;;;;;;;;;4990626;28;20230;-42
2023/04/13 05:28:55;;;;;;;4.05;1.10;;;7.80;99.90;;;;;;4990288;28;20176;-42
2023/04/13 05:31:23;;;;;;;3.85;0.80;;;8.00;99.90;;;;;;4982976;28;20601;-42
2023/04/13 05:33:49;;;;;;;1.02;0.52;;;;;;;;;;4972100;28;20177;-42
2023/04/13 05:36:14;;;;;;;1.33;1.00;;;7.90;99.90;;;;;;4971638;28;20260;-42
2023/04/13 05:38:40;;;;;;;2.53;1.00;;;8.00;99.90;;;;;;4972333;28;20273;-42
2023/04/13 05:41:06;;;;;;;1.48;0.70;;;;;;;;;;4990599;28;20220;-42
2023/04/13 05:43:33;;;;;;;2.88;1.15;;;7.90;99.90;;;;;;4990686;28;20691;-42
2023/04/13 05:45:59;;;;;;;2.75;0.65;;;7.80;99.90;;;;;;4990737;28;20164;-42
2023/04/13 05:48:25;;;;;;;2.35;0.80;;;7.70;99.90;;;;;;4977389;28;20664;-42
2023/04/13 05:50:56;;;;;;;2.55;0.93;;;7.80;99.90;;;;;;4971414;28;20174;-42
2023/04/13 05:53:21;;;;;;;2.25;0.88;;;8.00;99.90;;;;;;4971303;28;20219;-42
2023/04/13 05:55:47;;;;;;;1.63;0.85;;;8.00;99.90;;;;;;4971579;28;20169;-42
2023/04/13 05:58:12;;;;;;;0.77;0.60;;;8.10;99.90;;;;;;4969846;28;20307;-42
2023/04/13 06:00:38;;;;;;;1.10;0.82;;;8.10;99.90;;;;;;4971056;28;20173;-42
2023/04/13 06:03:04;;;;;;;2.10;0.98;;;;;;;;;;4970950;28;20209;-42
2023/04/13 06:05:31;;;;;;;1.88;0.55;;;;;;;;;;4971053;28;20166;-43
2023/04/13 06:07:58;;;;;;;1.73;0.70;;;8.00;99.90;;;;;;4982013;28;20177;-43
2023/04/13 06:10:24;;;;;;;4.80;0.80;;;8.20;99.90;;;;;;4990274;28;20173;-43
2023/04/13 06:12:51;;;;;;;1.38;1.02;;;;;;;;;;4980825;28;20184;-43
2023/04/13 06:15:19;;;;;;;1.48;0.70;;;8.30;99.90;;;;;;4980387;28;20212;-41
2023/04/13 06:17:45;;;;;;;0.82;0.70;;;;;;;;;;5001855;28;20166;-41
2023/04/13 06:20:11;;;;;;;2.90;0.98;;;8.40;99.90;;;;;;5071336;28;20173;-42
2023/04/13 06:22:37;;;;;;;2.55;1.20;;;;;;;;;;5071252;28;20209;-41
2023/04/13 06:25:03;;;;;;;2.03;0.98;;;8.50;99.90;;;;;;5071394;28;20166;-44
2023/04/13 06:27:32;;;;;;;1.55;0.43;;;8.40;99.90;;;;;;5027106;28;20177;-39
2023/04/13 06:29:58;;;;;;;1.15;0.95;;;8.40;99.90;;;;;;4988721;28;20691;-39
2023/04/13 06:32:23;;;;;;;3.72;1.08;;;8.60;99.90;;;;;;4988771;28;20173;-39
2023/04/13 06:34:49;;;;;;;1.05;0.80;;;8.50;99.90;;;;;;4989015;28;20687;-42
2023/04/13 06:37:16;;;;;;;3.28;1.10;;;8.70;99.90;;;;;;4988829;28;20173;-40
2023/04/13 06:39:42;;;;;;;2.35;1.00;;;;;;;;;;4977619;28;20181;-43
2023/04/13 06:42:08;;;;;;;3.55;1.30;;;;;;;;;;4969203;28;20205;-42
2023/04/13 06:44:34;;;;;;;5.00;1.23;;;;;;;;;;4969366;28;20166;-40
2023/04/13 06:47:00;;;;;;;4.38;1.40;;;9.00;99.90;;;;;;4969159;28;20178;-41
2023/04/13 06:49:26;;;;;;;3.60;1.33;;;9.10;99.90;;;;;;4968912;28;20266;-42
2023/04/13 06:51:52;;;;;;;1.48;1.00;;;;;;;;;;4968932;28;20752;-41
2023/04/13 06:54:18;;;;;;;0.80;0.80;;;9.10;99.90;;;;;;4966715;28;20257;-42
2023/04/13 06:56:44;;;;;;;3.08;1.13;;;9.00;99.90;;;;;;4965606;28;20185;-41
2023/04/13 06:59:10;;;;;;;2.72;1.13;;;;;;;;;;4967632;28;20252;-44
2023/04/13 07:01:36;;;;;;;2.85;1.15;;;;;;;;;;4968989;28;20165;-42
2023/04/13 07:04:01;;;;;;;2.05;1.02;;;9.20;99.90;;;;;;4968568;28;20617;-40
2023/04/13 07:06:27;;;;;;;1.73;1.05;;;9.20;99.90;;;;;;4970312;28;20177;-41
2023/04/13 07:08:53;;;;;;;0.98;0.77;;;;;;;;;;5066541;28;20583;-42
2023/04/13 07:11:19;;;;;;;1.48;1.15;;;;;;;;;;5020997;28;20532;-41
2023/04/13 07:13:45;;;;;;;3.05;1.08;;;9.10;99.90;;;;;;4988457;28;20167;-42
2023/04/13 07:16:11;;;;;;;1.23;0.70;;;9.10;99.90;;;;;;4988218;28;20653;-42
2023/04/13 07:18:37;;;;;;;3.15;1.35;;;9.10;99.90;;;;;;4985892;28;20625;-42
2023/04/13 07:21:03;;;;;;;2.90;0.90;;;;;;;;;;4967188;28;20235;-42
2023/04/13 07:23:28;;;;;;;3.00;1.80;;;8.90;99.90;;;;;;4968439;28;20240;-42
2023/04/13 07:25:54;;;;;;;4.97;1.38;;;9.00;99.90;;;;;;4968740;28;20580;-42
2023/04/13 07:28:20;;;;;;;2.67;1.10;;;;;;;;;;4967746;28;20518;-41
2023/04/13 07:30:46;;;;;;;2.15;1.15;;;9.00;99.90;;;;;;4981668;28;20663;-41
2023/04/13 07:33:12;;;;;;;1.42;0.80;;;;;;;;;;4988146;28;20177;-42
2023/04/13 07:35:38;;;;;;;2.80;0.95;;;9.00;99.90;;;;;;4987906;28;20543;-42
2023/04/13 07:38:04;;;;;;;1.23;0.85;;;9.00;99.90;;;;;;4987711;28;20169;-41
2023/04/13 07:40:31;;;;;;;1.88;1.48;;;;;;;;;;4987903;28;20180;-41
2023/04/13 07:42:56;;;;;;;3.88;1.30;;;9.00;99.90;;;;;;4987681;28;20680;-42
2023/04/13 07:45:22;;;;;;;3.47;1.33;;;9.10;99.90;;;;;;4975383;28;20233;-42
2023/04/13 07:47:48;;;;;;;4.63;1.27;;;9.20;99.90;;;;;;4968730;28;20174;-42
2023/04/13 07:50:15;;;;;;;5.70;1.52;;;;;;;;;;4968323;28;20251;-42
2023/04/13 07:52:41;;;;;;;1.60;0.93;;;9.30;99.90;;;;;;4974545;28;20643;-42
2023/04/13 07:55:07;;;;;;;3.38;1.60;;;9.50;99.90;;;;;;4968512;28;20252;-42
2023/04/13 07:57:33;;;;;;;3.33;1.40;;;;;;;;;;4968212;28;20485;-41
2023/04/13 07:59:59;;;;;;;1.85;1.13;;;;;;;;;;4968083;28;20193;-42
2023/04/13 08:02:25;;;;;;;3.20;1.30;;;9.40;99.90;;;;;;4968563;28;20212;-42
2023/04/13 08:04:51;;;;;;;3.22;1.50;;;;;;;;;;4968059;28;20169;-41
2023/04/13 08:07:17;;;;;;;5.35;1.58;;;;;;;;;;4968539;28;20177;-41
2023/04/13 08:09:47;;;;;;;3.00;1.27;;;;;;;;;;4967835;28;20225;-41
2023/04/13 08:12:13;;;;;;;4.50;1.77;;;;;;;;;;4968108;28;20185;-42
2023/04/13 08:14:39;;;;;;;4.95;1.83;;;;;;;;;;4968993;28;20173;-42
2023/04/13 08:17:05;;;;;;;4.88;1.65;;;;;;;;;;4970433;28;20174;-42
2023/04/13 08:19:31;;;;;;;4.15;1.95;;;9.20;99.90;;;;;;4971775;28;20644;-42
2023/04/13 08:21:58;;;;;;;5.03;1.58;;;9.30;99.90;;;;;;4971383;28;20208;-42
2023/04/13 08:24:24;;;;;;;9.05;2.50;;;;;;;;;;4985543;28;20176;-42
2023/04/13 08:26:53;;;;;;;5.72;1.98;;;;;;;;;;4988581;28;20555;-42
2023/04/13 08:29:20;;;;;;;4.47;1.77;;;;;;;;;;4991352;28;20173;-43
2023/04/13 08:31:46;;;;;;;3.95;1.77;;;;;;;;;;4991128;28;20177;-43
2023/04/13 08:34:13;;;;;;;9.23;2.45;;;9.60;99.90;;;;;;4990742;28;20165;-43
2023/04/13 08:36:39;;;;;;;8.85;2.05;;;9.70;99.90;;;;;;4989644;28;20180;-43
2023/04/13 08:39:08;;;;;;;7.85;1.90;;;;;;;;;;4972687;28;20184;-43
2023/04/13 08:41:36;;;;;;;5.53;2.13;;;9.80;99.90;;;;;;4971427;28;20174;-42
2023/04/13 08:44:05;;;;;;;5.93;1.98;;;9.80;99.90;;;;;;4971499;28;20181;-42
2023/04/13 08:46:32;;;;;;;8.73;2.20;;;9.70;99.90;;;;;;4971565;28;20197;-42
2023/04/13 08:48:58;;;;;;;7.13;2.40;;;9.70;99.90;;;;;;4974353;28;20165;-42
2023/04/13 08:51:25;;;;;;;7.13;2.45;;;9.70;99.90;;;;;;4990506;28;20177;-41
2023/04/13 08:53:54;;;;;;;7.93;2.95;;;9.70;99.90;;;;;;4990867;28;20172;-42
2023/04/13 08:56:21;;;;;;;9.05;2.28;;;9.50;99.90;;;;;;4990518;28;20666;-42
2023/04/13 08:58:49;;;;;;;8.85;2.05;;;9.50;99.90;;;;;;4991040;28;20256;-42
2023/04/13 09:01:15;;;;;;;3.45;2.10;;;9.50;99.90;;;;;;4990767;28;20586;-42
2023/04/13 09:03:52;;;;;;;16.63;3.05;;;9.60;99.90;;;;;;4990562;28;20227;-42
2023/04/13 09:06:24;;;;;;;10.35;2.03;;;9.50;99.90;;;;;;4990830;28;20184;-42
2023/04/13 09:08:54;;;;;;;6.93;2.53;;;9.70;99.90;;;;;;4990281;28;20223;-42
2023/04/13 09:11:21;;;;;;;15.10;3.28;;;;;;;;;;4990162;28;20173;-42
2023/04/13 09:13:50;;;;;;;9.35;2.15;;;9.80;99.90;;;;;;4990965;28;20169;-42
2023/04/13 09:16:17;;;;;;;15.73;3.30;;;9.90;99.90;;;;;;4990784;28;20172;-41
2023/04/13 09:18:54;;;;;;;5.80;2.47;;;9.80;99.90;;;;;;4986427;28;20252;-43
2023/04/13 09:21:21;;;;;;;8.05;2.85;;;10.10;99.90;;;;;;4970941;28;20213;-44
2023/04/13 09:23:58;;;;;;;10.20;2.85;;;10.20;99.90;;;;;;4970951;28;20231;-42
2023/04/13 09:26:25;;;;;;;14.25;3.75;;;10.40;99.90;;;;;;4969338;28;20630;-42
2023/04/13 09:28:54;;;;;;;10.65;2.65;;;10.70;99.90;;;;;;4970602;28;20661;-42
2023/04/13 09:31:19;;;;;;;10.85;2.90;;;10.60;99.90;;;;;;4970580;28;20169;-42
2023/04/13 09:33:50;;;;;;;13.02;3.03;;;10.60;99.90;;;;;;4970798;28;20592;-42
2023/04/13 09:36:18;;;;;;;7.95;2.60;;;11.00;99.90;;;;;;4970837;28;20189;-42
2023/04/13 09:38:45;;;;;;;7.43;2.33;;;11.00;99.90;;;;;;4970448;28;20181;-42
2023/04/13 09:41:11;;;;;;;7.82;3.45;;;11.10;99.90;;;;;;4970563;28;20541;-42
2023/04/13 09:43:37;;;;;;;13.85;3.70;;;11.30;99.90;;;;;;4970347;28;20295;-42
2023/04/13 09:46:04;;;;;;;12.18;3.55;;;11.10;99.90;;;;;;4970647;28;20213;-42
2023/04/13 09:48:30;;;;;;;11.18;2.60;;;11.00;99.90;;;;;;4971284;28;20663;-42
2023/04/13 09:50:58;;;;;;;10.05;2.55;;;11.00;99.90;;;;;;4984474;28;20177;-42
2023/04/13 09:53:26;;;;;;;9.43;2.67;;;;;;;;;;4970054;28;20177;-43
2023/04/13 09:55:58;;;;;;;8.15;2.75;;;11.70;99.90;;;;;;4970471;28;20181;-42
2023/04/13 09:58:24;;;;;;;11.15;2.08;;;11.60;99.90;;;;;;4970076;28;20173;-43
2023/04/13 10:00:52;;;;;;;10.60;2.90;;;11.90;99.90;;;;;;4970327;28;20177;-42
2023/04/13 10:03:20;;;;;;;5.43;1.83;;;11.70;99.90;;;;;;4970432;28;20205;-42
2023/04/13 10:05:46;;;;;;;10.23;3.08;;;11.90;99.90;;;;;;4970750;28;20177;-42
2023/04/13 10:08:12;;;;;;;6.45;2.70;;;11.70;99.90;;;;;;4970074;28;20229;-43
2023/04/13 10:10:40;;;;;;;12.88;4.47;;;11.50;99.90;;;;;;4970128;28;20215;-43
2023/04/13 10:13:14;;;;;;;8.25;2.10;;;11.50;99.90;;;;;;4969890;28;20169;-43
2023/04/13 10:16:36;;;;;;;9.45;3.17;;;12.10;99.90;;;;;;4970053;28;20720;-43
2023/04/13 10:19:21;;;;;;;9.82;3.15;;;12.50;99.90;;;;;;5056986;28;20178;-42
2023/04/13 10:21:50;;;;;;;11.95;4.35;;;12.50;99.90;;;;;;5069429;28;20201;-42
2023/04/13 10:24:16;;;;;;;7.88;2.38;;;;;;;;;;5010451;28;20215;-42
2023/04/13 10:26:45;;;;;;;11.15;2.85;;;12.40;99.90;;;;;;4989176;28;20596;-42
2023/04/13 10:29:13;;;;;;;17.67;5.07;;;;;;;;;;4989342;28;20177;-42
2023/04/13 10:31:45;;;;;;;11.60;2.92;;;12.40;99.90;;;;;;4989236;28;20562;-42
2023/04/13 10:34:25;;;;;;;9.55;2.20;;;12.40;99.90;;;;;;4989248;28;20539;-42
2023/04/13 10:36:54;;;;;;;13.27;3.53;;;12.20;99.90;;;;;;4988808;28;20165;-43
2023/04/13 10:39:24;;;;;;;9.23;3.05;;;12.20;99.90;;;;;;4988856;28;20173;-43
2023/04/13 10:42:07;;;;;;;7.13;2.60;;;12.20;99.90;;;;;;4988833;28;20169;-44
2023/04/13 10:44:49;;;;;;;8.50;3.13;;;11.80;99.90;;;;;;4988885;28;20675;-43
2023/04/13 10:47:19;;;;;;;6.43;2.30;;;11.80;99.90;;;;;;4987959;28;20195;-43
2023/04/13 10:49:45;;;;;;;12.70;3.10;;;;;;;;;;4962046;28;20235;-44
2023/04/13 10:52:11;;;;;;;6.40;2.40;;;;;;;;;;4950399;28;20185;-43
2023/04/13 10:54:38;;;;;;;8.60;2.22;;;11.60;99.90;;;;;;4950201;28;20170;-42
2023/04/13 10:57:07;;;;;;;7.03;2.75;;;11.60;99.90;;;;;;4948669;28;20174;-44
2023/04/13 10:59:48;;;;;;;11.13;2.83;;;11.70;99.90;;;;;;4950107;28;20178;-43
2023/04/13 11:02:16;;;;;;;7.20;2.55;;;11.50;99.90;;;;;;4950322;28;20567;-42
2023/04/13 11:04:46;;;;;;;9.80;2.45;;;11.60;99.90;;;;;;4950312;28;20174;-43
2023/04/13 11:07:15;;;;;;;7.50;2.72;;;11.60;99.90;;;;;;4949915;28;20171;-42
2023/04/13 11:09:42;;;;;;;10.63;2.65;;;12.00;99.90;;;;;;4949744;28;20257;-43
2023/04/13 11:12:10;;;;;;;7.78;2.58;;;12.00;99.90;;;;;;4949866;28;20739;-43
2023/04/13 11:14:37;;;;;;;8.80;2.80;;;12.10;99.90;;;;;;4949889;28;20166;-42
2023/04/13 11:17:05;;;;;;;8.57;2.88;;;12.10;99.90;;;;;;4949755;28;20182;-43
2023/04/13 11:19:31;;;;;;;10.40;2.30;;;11.90;99.90;;;;;;4977432;28;20182;-43
2023/04/13 11:21:58;;;;;;;5.88;2.30;;;11.80;99.90;;;;;;4970581;28;20198;-42
2023/04/13 11:24:32;;;;;;;14.55;2.60;;;11.90;99.90;;;;;;4968974;28;20188;-42
2023/04/13 11:26:58;;;;;;;11.02;3.55;;;12.10;99.90;;;;;;4968868;28;20183;-43
2023/04/13 11:29:24;;;;;;;10.82;2.35;;;;;;;;;;4968779;28;20173;-43
2023/04/13 11:31:50;;;;;;;9.70;2.83;;;11.80;99.90;;;;;;4967480;28;20169;-42
2023/04/13 11:34:27;;;;;;;7.63;2.03;;;11.60;99.90;;;;;;4969125;28;20200;-42
2023/04/13 11:37:01;;;;;;;11.43;2.50;;;11.60;99.90;;;;;;4967702;28;20181;-42
2023/04/13 11:39:27;;;;;;;7.95;2.65;;;;;;;;;;4968724;28;20242;-42
2023/04/13 11:41:55;;;;;;;9.77;2.45;;;12.00;99.90;;;;;;4969054;28;20222;-42
2023/04/13 11:44:22;;;;;;;10.60;3.25;;;12.20;99.90;;;;;;4967511;28;20196;-42
2023/04/13 11:46:51;;;;;;;13.05;3.70;;;12.60;99.90;;;;;;4969124;28;20165;-42
2023/04/13 11:49:17;;;;;;;9.80;3.63;;;12.70;99.90;;;;;;4979505;28;20180;-42
2023/04/13 11:51:43;;;;;;;12.52;2.90;;;12.70;99.90;;;;;;4987279;28;20173;-43
2023/04/13 11:54:09;;;;;;;10.90;3.90;;;;;;;;;;4988197;28;20234;-43
2023/04/13 11:56:35;;;;;;;9.63;2.70;;;12.80;99.90;;;;;;4988254;28;20199;-42
2023/04/13 11:59:01;;;;;;;12.90;3.10;;;;;;;;;;4987795;28;20640;-44
2023/04/13 12:01:28;;;;;;;9.95;2.53;;;;;;;;;;4987823;28;20719;-44
2023/04/13 12:04:02;;;;;;;8.75;2.80;;;13.40;99.90;;;;;;4987712;28;20227;-43
2023/04/13 12:06:28;;;;;;;8.25;2.38;;;13.60;99.90;;;;;;4987920;28;20208;-42
2023/04/13 12:09:01;;;;;;;6.80;2.33;;;13.70;99.90;;;;;;4987543;28;20235;-42
2023/04/13 12:11:38;;;;;;;6.85;2.60;;;13.90;99.90;;;;;;4987946;28;20197;-42
2023/04/13 12:14:04;;;;;;;8.07;2.70;;;14.00;99.90;;;;;;4987763;28;20217;-43
2023/04/13 12:16:32;;;;;;;7.05;2.30;;;14.20;99.90;;;;;;4987615;28;20181;-42
2023/04/13 12:19:04;;;;;;;10.73;2.67;;;;;;;;;;4975740;28;20186;-44
2023/04/13 12:21:30;;;;;;;8.00;2.35;;;14.00;99.90;;;;;;4968138;28;20193;-42
2023/04/13 12:24:00;;;;;;;8.40;2.85;;;13.70;99.90;;;;;;4967960;28;20213;-42
2023/04/13 12:26:36;;;;;;;9.05;2.88;;;13.60;99.90;;;;;;4968202;28;20181;-42
2023/04/13 12:29:06;;;;;;;6.90;2.35;;;14.10;99.90;;;;;;4968321;28;20181;-44
2023/04/13 12:31:36;;;;;;;9.80;2.53;;;14.10;99.90;;;;;;4968237;28;20170;-42
2023/04/13 12:34:02;;;;;;;7.05;2.00;;;13.70;99.90;;;;;;4966918;28;20252;-41
2023/04/13 12:36:30;;;;;;;7.18;2.10;;;;;;;;;;4968034;28;20227;-43
2023/04/13 12:38:58;;;;;;;10.82;2.35;;;13.90;99.90;;;;;;4967885;28;20533;-41
2023/04/13 12:41:24;;;;;;;7.07;1.95;;;13.70;99.90;;;;;;4968107;28;20204;-42
2023/04/13 12:43:50;;;;;;;7.13;2.22;;;;;;;;;;4968053;28;20669;-42
2023/04/13 12:46:16;;;;;;;3.75;1.70;;;;;;;;;;4968356;28;20170;-42
2023/04/13 12:48:42;;;;;;;7.90;2.20;;;13.90;99.90;;;;;;4967659;28;20185;-44
2023/04/13 12:51:08;;;;;;;8.88;2.60;;;13.80;99.90;;;;;;4967871;28;20177;-43
2023/04/13 12:53:34;;;;;;;8.18;4.03;;;;;;;;;;4964874;28;20184;-42
2023/04/13 12:56:00;;;;;;;12.32;4.78;;;13.80;99.90;;;;;;4967922;28;20209;-43
2023/04/13 12:58:25;;;;;;;11.45;5.13;;;14.10;99.90;;;;;;4967851;28;20205;-44
2023/04/13 13:00:51;;;;;;;11.80;4.63;;;;;;;;;;4968873;28;20209;-44
2023/04/13 13:03:17;;;;;;;25.17;10.40;;;14.30;99.90;;;;;;4971288;28;20648;-43
2023/04/13 13:05:42;;;;;;;10.00;3.28;;;14.20;99.90;;;;;;4971004;28;20166;-44
2023/04/13 13:08:08;;;;;;;6.63;3.53;;;14.40;99.90;;;;;;4970861;28;20269;-44
2023/04/13 13:10:35;;;;;;;6.97;3.10;;;14.60;99.90;;;;;;4970965;28;20214;-44
2023/04/13 13:13:02;;;;;;;6.45;1.80;;;14.60;99.10;;;;;;4971218;28;20194;-44
2023/04/13 13:15:28;;;;;;;8.63;1.85;;;;;;;;;;4971119;28;20177;-44
2023/04/13 13:17:54;;;;;;;5.28;2.53;;;14.70;97.50;;;;;;4975600;28;20255;-44